Ana Sayfa
METAR-TAF:

METAR-TAF

Havaalanları :

Alamogordo / Holloman, New Mexico, Amerika Birleşik Devletleri

Enlem: 32-51N, Boylam: 106-06W, yükseklik: 1248 m

Güncel hava durumu gözlemi

Rapor saat 22:04 UTC de 41 dakika önce yapıldı.
Rüzgar batı/kuzeybatıdan 14 kt
Sıcaklık 27°C
Nem 17%
Basınç 1013 hPa
Görüş mesafesi: 16.1 km
10000 ft yükseklikte az bulutlu

METAR: KHMN 252204Z AUTO 29014KT 10SM FEW100 27/00 A2991 RMK AO2 WSHFT 01 SLP069 $

Saat: 16:45 (22:45 UTC)


TAF: eksik

4.000'den fazla havaalanı için hava durumu gözlemleri ve tahminleri (METAR ve TAF raporları).

Kullanılabilir istasyonlar harita üzerinde sarı ve kırmızı noktalarla gösterilir.

İstasyonun adını görmek için fareyi noktanın üzerinde gezdirin.

Sonrasında hava gözlem ve tahminlerini görmek için tıklayın.

Haritayı değiştirmek için: yaklaştırmak için siyah artı işaretli yeşil düğmeye ve uzaklaştırmak için de eksi işaretli düğmeye hızla tıklayın; bitişik haritalar için yeşil okları kullanın.


METAR-TAF: